sensor_id;sensor_type;location;lat;lon;timestamp;temperature;humidity
2260;DHT22;333;48.800;9.530;2023-04-21T00:01:40;5.70;99.60
2260;DHT22;333;48.800;9.530;2023-04-21T00:04:07;5.50;99.60
2260;DHT22;333;48.800;9.530;2023-04-21T00:06:37;5.30;99.60
2260;DHT22;333;48.800;9.530;2023-04-21T00:09:06;5.40;99.60
2260;DHT22;333;48.800;9.530;2023-04-21T00:11:33;5.50;99.60
2260;DHT22;333;48.800;9.530;2023-04-21T00:14:01;5.60;99.60
2260;DHT22;333;48.800;9.530;2023-04-21T00:16:28;5.60;99.60
2260;DHT22;333;48.800;9.530;2023-04-21T00:18:55;5.30;99.60
2260;DHT22;333;48.800;9.530;2023-04-21T00:21:22;5.10;99.60
2260;DHT22;333;48.800;9.530;2023-04-21T00:23:49;5.20;99.60
2260;DHT22;333;48.800;9.530;2023-04-21T00:26:17;5.20;99.60
2260;DHT22;333;48.800;9.530;2023-04-21T00:28:44;5.30;99.60
2260;DHT22;333;48.800;9.530;2023-04-21T00:31:13;5.20;99.60
2260;DHT22;333;48.800;9.530;2023-04-21T00:33:40;5.20;99.60
2260;DHT22;333;48.800;9.530;2023-04-21T00:36:07;5.10;99.60
2260;DHT22;333;48.800;9.530;2023-04-21T00:38:34;5.00;99.60
2260;DHT22;333;48.800;9.530;2023-04-21T00:41:01;5.00;99.60
2260;DHT22;333;48.800;9.530;2023-04-21T00:43:28;5.00;99.60
2260;DHT22;333;48.800;9.530;2023-04-21T00:45:55;5.10;99.60
2260;DHT22;333;48.800;9.530;2023-04-21T00:48:23;5.10;99.60
2260;DHT22;333;48.800;9.530;2023-04-21T00:50:50;5.10;99.60
2260;DHT22;333;48.800;9.530;2023-04-21T00:53:19;5.10;99.60
2260;DHT22;333;48.800;9.530;2023-04-21T00:55:47;5.20;99.60
2260;DHT22;333;48.800;9.530;2023-04-21T00:58:15;5.20;99.60
2260;DHT22;333;48.800;9.530;2023-04-21T01:00:42;5.10;99.60
2260;DHT22;333;48.800;9.530;2023-04-21T01:03:10;5.10;99.60
2260;DHT22;333;48.800;9.530;2023-04-21T01:05:38;5.00;99.60
2260;DHT22;333;48.800;9.530;2023-04-21T01:08:06;5.00;99.60
2260;DHT22;333;48.800;9.530;2023-04-21T01:10:33;5.10;99.60
2260;DHT22;333;48.800;9.530;2023-04-21T01:13:00;5.20;99.60
2260;DHT22;333;48.800;9.530;2023-04-21T01:15:27;5.20;99.60
2260;DHT22;333;48.800;9.530;2023-04-21T01:17:56;5.20;99.60
2260;DHT22;333;48.800;9.530;2023-04-21T01:20:23;5.10;99.60
2260;DHT22;333;48.800;9.530;2023-04-21T01:22:51;5.00;99.60
2260;DHT22;333;48.800;9.530;2023-04-21T01:25:18;5.00;99.60
2260;DHT22;333;48.800;9.530;2023-04-21T01:27:46;5.00;99.60
2260;DHT22;333;48.800;9.530;2023-04-21T01:30:13;5.00;99.60
2260;DHT22;333;48.800;9.530;2023-04-21T01:32:40;5.00;99.60
2260;DHT22;333;48.800;9.530;2023-04-21T01:35:08;5.10;99.60
2260;DHT22;333;48.800;9.530;2023-04-21T01:37:35;5.20;99.60
2260;DHT22;333;48.800;9.530;2023-04-21T01:40:06;5.30;99.60
2260;DHT22;333;48.800;9.530;2023-04-21T01:42:35;5.20;99.60
2260;DHT22;333;48.800;9.530;2023-04-21T01:45:03;5.20;99.60
2260;DHT22;333;48.800;9.530;2023-04-21T01:47:30;5.30;99.60
2260;DHT22;333;48.800;9.530;2023-04-21T01:49:57;5.30;99.60
2260;DHT22;333;48.800;9.530;2023-04-21T01:52:24;5.40;99.60
2260;DHT22;333;48.800;9.530;2023-04-21T01:54:51;5.30;99.60
2260;DHT22;333;48.800;9.530;2023-04-21T01:57:19;5.10;99.60
2260;DHT22;333;48.800;9.530;2023-04-21T01:59:46;5.10;99.60
2260;DHT22;333;48.800;9.530;2023-04-21T02:02:14;5.20;99.60
2260;DHT22;333;48.800;9.530;2023-04-21T02:04:41;5.20;99.60
2260;DHT22;333;48.800;9.530;2023-04-21T02:07:08;5.00;99.60
2260;DHT22;333;48.800;9.530;2023-04-21T02:09:35;4.90;99.60
2260;DHT22;333;48.800;9.530;2023-04-21T02:12:02;5.10;99.60
2260;DHT22;333;48.800;9.530;2023-04-21T02:14:30;5.20;99.60
2260;DHT22;333;48.800;9.530;2023-04-21T02:16:57;5.20;99.60
2260;DHT22;333;48.800;9.530;2023-04-21T02:19:24;5.20;99.60
2260;DHT22;333;48.800;9.530;2023-04-21T02:21:51;5.20;99.60
2260;DHT22;333;48.800;9.530;2023-04-21T02:24:18;5.20;99.60
2260;DHT22;333;48.800;9.530;2023-04-21T02:26:45;5.20;99.60
2260;DHT22;333;48.800;9.530;2023-04-21T02:29:13;5.20;99.60
2260;DHT22;333;48.800;9.530;2023-04-21T02:31:41;5.10;99.60
2260;DHT22;333;48.800;9.530;2023-04-21T02:34:08;5.00;99.60
2260;DHT22;333;48.800;9.530;2023-04-21T02:36:35;5.10;99.60
2260;DHT22;333;48.800;9.530;2023-04-21T02:39:02;5.20;99.60
2260;DHT22;333;48.800;9.530;2023-04-21T02:41:29;5.10;99.60
2260;DHT22;333;48.800;9.530;2023-04-21T02:43:56;5.00;99.60
2260;DHT22;333;48.800;9.530;2023-04-21T02:46:23;4.90;99.60
2260;DHT22;333;48.800;9.530;2023-04-21T02:48:52;5.00;99.60
2260;DHT22;333;48.800;9.530;2023-04-21T02:51:19;5.00;99.60
2260;DHT22;333;48.800;9.530;2023-04-21T02:53:46;4.90;99.60
2260;DHT22;333;48.800;9.530;2023-04-21T02:56:13;5.10;99.60
2260;DHT22;333;48.800;9.530;2023-04-21T02:58:40;5.10;99.60
2260;DHT22;333;48.800;9.530;2023-04-21T03:01:08;5.00;99.60
2260;DHT22;333;48.800;9.530;2023-04-21T03:03:35;4.90;99.60
2260;DHT22;333;48.800;9.530;2023-04-21T03:06:04;4.90;99.60
2260;DHT22;333;48.800;9.530;2023-04-21T03:08:32;4.90;99.60
2260;DHT22;333;48.800;9.530;2023-04-21T03:10:59;4.90;99.60
2260;DHT22;333;48.800;9.530;2023-04-21T03:13:26;4.90;99.60
2260;DHT22;333;48.800;9.530;2023-04-21T03:15:53;4.90;99.60
2260;DHT22;333;48.800;9.530;2023-04-21T03:18:20;4.80;99.60
2260;DHT22;333;48.800;9.530;2023-04-21T03:20:47;4.80;99.60
2260;DHT22;333;48.800;9.530;2023-04-21T03:23:16;4.90;99.60
2260;DHT22;333;48.800;9.530;2023-04-21T03:25:43;4.90;99.60
2260;DHT22;333;48.800;9.530;2023-04-21T03:28:10;4.90;99.60
2260;DHT22;333;48.800;9.530;2023-04-21T03:30:37;5.00;99.60
2260;DHT22;333;48.800;9.530;2023-04-21T03:33:04;5.00;99.60
2260;DHT22;333;48.800;9.530;2023-04-21T03:35:31;5.10;99.60
2260;DHT22;333;48.800;9.530;2023-04-21T03:37:59;4.90;99.60
2260;DHT22;333;48.800;9.530;2023-04-21T03:40:27;4.90;99.60
2260;DHT22;333;48.800;9.530;2023-04-21T03:42:54;5.00;99.60
2260;DHT22;333;48.800;9.530;2023-04-21T03:45:21;5.00;99.60
2260;DHT22;333;48.800;9.530;2023-04-21T03:47:52;5.00;99.60
2260;DHT22;333;48.800;9.530;2023-04-21T03:50:19;5.00;99.60
2260;DHT22;333;48.800;9.530;2023-04-21T03:52:46;5.00;99.60
2260;DHT22;333;48.800;9.530;2023-04-21T03:55:13;4.90;99.60
2260;DHT22;333;48.800;9.530;2023-04-21T03:57:41;4.80;99.60
2260;DHT22;333;48.800;9.530;2023-04-21T04:00:09;4.90;99.60
2260;DHT22;333;48.800;9.530;2023-04-21T04:02:37;4.90;99.60
2260;DHT22;333;48.800;9.530;2023-04-21T04:05:05;4.90;99.60
2260;DHT22;333;48.800;9.530;2023-04-21T04:07:32;4.90;99.60
2260;DHT22;333;48.800;9.530;2023-04-21T04:09:59;5.00;99.60
2260;DHT22;333;48.800;9.530;2023-04-21T04:12:26;5.00;99.60
2260;DHT22;333;48.800;9.530;2023-04-21T04:14:54;5.00;99.60
2260;DHT22;333;48.800;9.530;2023-04-21T04:17:21;4.90;99.60
2260;DHT22;333;48.800;9.530;2023-04-21T04:19:48;4.80;99.60
2260;DHT22;333;48.800;9.530;2023-04-21T04:22:15;4.70;99.60
2260;DHT22;333;48.800;9.530;2023-04-21T04:24:42;4.70;99.60
2260;DHT22;333;48.800;9.530;2023-04-21T04:27:10;4.80;99.60
2260;DHT22;333;48.800;9.530;2023-04-21T04:29:38;4.80;99.60
2260;DHT22;333;48.800;9.530;2023-04-21T04:32:08;4.80;99.60
2260;DHT22;333;48.800;9.530;2023-04-21T04:34:35;4.80;99.60
2260;DHT22;333;48.800;9.530;2023-04-21T04:37:03;4.80;99.60
2260;DHT22;333;48.800;9.530;2023-04-21T04:39:31;4.90;99.60
2260;DHT22;333;48.800;9.530;2023-04-21T04:41:58;4.70;99.60
2260;DHT22;333;48.800;9.530;2023-04-21T04:44:26;4.60;99.60
2260;DHT22;333;48.800;9.530;2023-04-21T04:46:53;4.50;99.60
2260;DHT22;333;48.800;9.530;2023-04-21T04:49:22;4.40;99.60
2260;DHT22;333;48.800;9.530;2023-04-21T04:51:49;4.40;99.60
2260;DHT22;333;48.800;9.530;2023-04-21T04:54:16;4.50;99.60
2260;DHT22;333;48.800;9.530;2023-04-21T04:56:43;4.50;99.60
2260;DHT22;333;48.800;9.530;2023-04-21T04:59:10;4.50;99.60
2260;DHT22;333;48.800;9.530;2023-04-21T05:01:37;4.50;99.60
2260;DHT22;333;48.800;9.530;2023-04-21T05:04:06;4.40;99.60
2260;DHT22;333;48.800;9.530;2023-04-21T05:06:35;4.40;99.60
2260;DHT22;333;48.800;9.530;2023-04-21T05:09:02;4.50;99.60
2260;DHT22;333;48.800;9.530;2023-04-21T05:11:30;4.50;99.60
2260;DHT22;333;48.800;9.530;2023-04-21T05:13:57;4.60;99.60
2260;DHT22;333;48.800;9.530;2023-04-21T05:16:24;4.60;99.60
2260;DHT22;333;48.800;9.530;2023-04-21T05:18:51;4.70;99.60
2260;DHT22;333;48.800;9.530;2023-04-21T05:21:23;4.80;99.60
2260;DHT22;333;48.800;9.530;2023-04-21T05:23:53;4.80;99.60
2260;DHT22;333;48.800;9.530;2023-04-21T05:26:20;4.80;99.60
2260;DHT22;333;48.800;9.530;2023-04-21T05:28:48;4.80;99.60
2260;DHT22;333;48.800;9.530;2023-04-21T05:31:15;4.90;99.60
2260;DHT22;333;48.800;9.530;2023-04-21T05:33:42;4.90;99.60
2260;DHT22;333;48.800;9.530;2023-04-21T05:36:09;4.90;99.60
2260;DHT22;333;48.800;9.530;2023-04-21T05:38:37;5.00;99.60
2260;DHT22;333;48.800;9.530;2023-04-21T05:41:06;5.00;99.60
2260;DHT22;333;48.800;9.530;2023-04-21T05:43:33;5.10;99.60
2260;DHT22;333;48.800;9.530;2023-04-21T05:46:01;5.00;99.60
2260;DHT22;333;48.800;9.530;2023-04-21T05:48:28;5.20;99.60
2260;DHT22;333;48.800;9.530;2023-04-21T05:50:55;5.20;99.60
2260;DHT22;333;48.800;9.530;2023-04-21T05:53:22;5.20;99.60
2260;DHT22;333;48.800;9.530;2023-04-21T05:55:49;5.20;99.60
2260;DHT22;333;48.800;9.530;2023-04-21T05:58:17;5.20;99.60
2260;DHT22;333;48.800;9.530;2023-04-21T06:00:44;5.20;99.60
2260;DHT22;333;48.800;9.530;2023-04-21T06:03:12;5.20;99.60
2260;DHT22;333;48.800;9.530;2023-04-21T06:05:39;5.20;99.60
2260;DHT22;333;48.800;9.530;2023-04-21T06:08:06;5.20;99.60
2260;DHT22;333;48.800;9.530;2023-04-21T06:10:33;5.30;99.60
2260;DHT22;333;48.800;9.530;2023-04-21T06:13:00;5.20;99.60
2260;DHT22;333;48.800;9.530;2023-04-21T06:15:29;5.20;99.60
2260;DHT22;333;48.800;9.530;2023-04-21T06:17:56;5.30;99.60
2260;DHT22;333;48.800;9.530;2023-04-21T06:20:23;5.50;99.60
2260;DHT22;333;48.800;9.530;2023-04-21T06:22:50;5.60;99.60
2260;DHT22;333;48.800;9.530;2023-04-21T06:25:17;5.70;99.60
2260;DHT22;333;48.800;9.530;2023-04-21T06:27:44;5.70;99.60
2260;DHT22;333;48.800;9.530;2023-04-21T06:30:12;5.90;99.60
2260;DHT22;333;48.800;9.530;2023-04-21T06:32:40;5.90;99.60
2260;DHT22;333;48.800;9.530;2023-04-21T06:35:08;6.10;99.60
2260;DHT22;333;48.800;9.530;2023-04-21T06:37:35;6.10;99.60
2260;DHT22;333;48.800;9.530;2023-04-21T06:40:02;6.20;99.60
2260;DHT22;333;48.800;9.530;2023-04-21T06:42:29;6.30;99.60
2260;DHT22;333;48.800;9.530;2023-04-21T06:44:56;6.30;99.60
2260;DHT22;333;48.800;9.530;2023-04-21T06:47:23;6.30;99.60
2260;DHT22;333;48.800;9.530;2023-04-21T06:49:51;6.40;99.60
2260;DHT22;333;48.800;9.530;2023-04-21T06:52:18;6.30;99.60
2260;DHT22;333;48.800;9.530;2023-04-21T06:54:45;6.30;99.60
2260;DHT22;333;48.800;9.530;2023-04-21T06:57:12;6.30;99.60
2260;DHT22;333;48.800;9.530;2023-04-21T06:59:39;6.30;99.60
2260;DHT22;333;48.800;9.530;2023-04-21T07:02:07;6.50;99.60
2260;DHT22;333;48.800;9.530;2023-04-21T07:04:36;6.80;99.60
2260;DHT22;333;48.800;9.530;2023-04-21T07:07:05;6.90;99.60
2260;DHT22;333;48.800;9.530;2023-04-21T07:09:32;6.90;99.60
2260;DHT22;333;48.800;9.530;2023-04-21T07:11:59;6.90;99.60
2260;DHT22;333;48.800;9.530;2023-04-21T07:14:27;6.70;99.60
2260;DHT22;333;48.800;9.530;2023-04-21T07:16:55;6.80;99.60
2260;DHT22;333;48.800;9.530;2023-04-21T07:19:22;7.10;99.60
2260;DHT22;333;48.800;9.530;2023-04-21T07:21:49;7.20;99.60
2260;DHT22;333;48.800;9.530;2023-04-21T07:24:17;7.40;99.60
2260;DHT22;333;48.800;9.530;2023-04-21T07:26:44;7.60;99.60
2260;DHT22;333;48.800;9.530;2023-04-21T07:29:11;7.70;99.60
2260;DHT22;333;48.800;9.530;2023-04-21T07:31:38;7.70;99.60
2260;DHT22;333;48.800;9.530;2023-04-21T07:34:05;7.70;99.60
2260;DHT22;333;48.800;9.530;2023-04-21T07:36:32;7.60;99.60
2260;DHT22;333;48.800;9.530;2023-04-21T07:38:59;7.50;99.60
2260;DHT22;333;48.800;9.530;2023-04-21T07:41:27;7.30;99.60
2260;DHT22;333;48.800;9.530;2023-04-21T07:43:54;7.40;99.60
2260;DHT22;333;48.800;9.530;2023-04-21T07:46:21;7.70;99.60
2260;DHT22;333;48.800;9.530;2023-04-21T07:48:54;7.90;99.60
2260;DHT22;333;48.800;9.530;2023-04-21T07:51:21;8.10;99.60
2260;DHT22;333;48.800;9.530;2023-04-21T07:53:48;8.40;99.60
2260;DHT22;333;48.800;9.530;2023-04-21T07:56:15;8.40;99.60
2260;DHT22;333;48.800;9.530;2023-04-21T07:58:45;8.40;99.60
2260;DHT22;333;48.800;9.530;2023-04-21T08:01:13;8.30;99.60
2260;DHT22;333;48.800;9.530;2023-04-21T08:03:41;8.40;99.60
2260;DHT22;333;48.800;9.530;2023-04-21T08:06:09;8.60;99.60
2260;DHT22;333;48.800;9.530;2023-04-21T08:08:36;8.70;99.60
2260;DHT22;333;48.800;9.530;2023-04-21T08:11:03;9.00;99.60
2260;DHT22;333;48.800;9.530;2023-04-21T08:13:31;9.10;99.60
2260;DHT22;333;48.800;9.530;2023-04-21T08:15:59;9.30;99.60
2260;DHT22;333;48.800;9.530;2023-04-21T08:18:26;9.30;99.60
2260;DHT22;333;48.800;9.530;2023-04-21T08:20:53;9.10;99.60
2260;DHT22;333;48.800;9.530;2023-04-21T08:23:22;9.30;99.60
2260;DHT22;333;48.800;9.530;2023-04-21T08:25:49;9.30;99.60
2260;DHT22;333;48.800;9.530;2023-04-21T08:28:16;9.40;99.60
2260;DHT22;333;48.800;9.530;2023-04-21T08:30:43;9.50;99.60
2260;DHT22;333;48.800;9.530;2023-04-21T08:33:12;9.50;99.60
2260;DHT22;333;48.800;9.530;2023-04-21T08:35:39;9.70;99.60
2260;DHT22;333;48.800;9.530;2023-04-21T08:38:07;10.00;99.60
2260;DHT22;333;48.800;9.530;2023-04-21T08:40:35;10.20;99.60
2260;DHT22;333;48.800;9.530;2023-04-21T08:43:04;10.30;99.60
2260;DHT22;333;48.800;9.530;2023-04-21T08:45:31;10.60;99.60
2260;DHT22;333;48.800;9.530;2023-04-21T08:48:00;10.50;99.60
2260;DHT22;333;48.800;9.530;2023-04-21T08:50:29;10.60;99.60
2260;DHT22;333;48.800;9.530;2023-04-21T08:52:57;11.20;99.60
2260;DHT22;333;48.800;9.530;2023-04-21T08:55:27;11.50;99.60
2260;DHT22;333;48.800;9.530;2023-04-21T08:57:54;11.30;99.60
2260;DHT22;333;48.800;9.530;2023-04-21T09:00:21;11.30;99.60
2260;DHT22;333;48.800;9.530;2023-04-21T09:02:52;11.50;99.60
2260;DHT22;333;48.800;9.530;2023-04-21T09:05:21;11.70;99.60
2260;DHT22;333;48.800;9.530;2023-04-21T09:07:50;11.80;99.60
2260;DHT22;333;48.800;9.530;2023-04-21T09:10:21;12.00;99.60
2260;DHT22;333;48.800;9.530;2023-04-21T09:12:50;12.20;99.60
2260;DHT22;333;48.800;9.530;2023-04-21T09:15:19;12.20;99.60
2260;DHT22;333;48.800;9.530;2023-04-21T09:17:46;12.20;99.60
2260;DHT22;333;48.800;9.530;2023-04-21T09:20:15;12.10;99.60
2260;DHT22;333;48.800;9.530;2023-04-21T09:22:43;11.70;99.60
2260;DHT22;333;48.800;9.530;2023-04-21T09:25:15;11.40;99.60
2260;DHT22;333;48.800;9.530;2023-04-21T09:27:42;11.60;99.60
2260;DHT22;333;48.800;9.530;2023-04-21T09:30:10;12.20;99.60
2260;DHT22;333;48.800;9.530;2023-04-21T09:32:38;12.90;99.60
2260;DHT22;333;48.800;9.530;2023-04-21T09:35:07;12.90;99.60
2260;DHT22;333;48.800;9.530;2023-04-21T09:37:37;13.20;99.60
2260;DHT22;333;48.800;9.530;2023-04-21T09:40:05;13.10;99.60
2260;DHT22;333;48.800;9.530;2023-04-21T09:42:34;13.10;99.60
2260;DHT22;333;48.800;9.530;2023-04-21T09:45:01;13.30;99.60
2260;DHT22;333;48.800;9.530;2023-04-21T09:47:29;13.10;99.60
2260;DHT22;333;48.800;9.530;2023-04-21T09:49:59;13.40;99.60
2260;DHT22;333;48.800;9.530;2023-04-21T09:52:28;13.50;99.60
2260;DHT22;333;48.800;9.530;2023-04-21T09:54:59;13.30;99.60
2260;DHT22;333;48.800;9.530;2023-04-21T09:57:30;13.20;99.60
2260;DHT22;333;48.800;9.530;2023-04-21T10:00:02;13.60;99.60
2260;DHT22;333;48.800;9.530;2023-04-21T10:02:31;13.70;99.60
2260;DHT22;333;48.800;9.530;2023-04-21T10:05:00;13.50;99.60
2260;DHT22;333;48.800;9.530;2023-04-21T10:07:27;13.30;99.60
2260;DHT22;333;48.800;9.530;2023-04-21T10:09:55;13.70;99.60
2260;DHT22;333;48.800;9.530;2023-04-21T10:12:24;13.80;99.60
2260;DHT22;333;48.800;9.530;2023-04-21T10:14:51;14.20;99.60
2260;DHT22;333;48.800;9.530;2023-04-21T10:17:22;14.60;99.60
2260;DHT22;333;48.800;9.530;2023-04-21T10:19:51;14.50;99.60
2260;DHT22;333;48.800;9.530;2023-04-21T10:22:28;14.40;99.60
2260;DHT22;333;48.800;9.530;2023-04-21T10:24:57;14.30;99.60
2260;DHT22;333;48.800;9.530;2023-04-21T10:27:36;13.70;99.60
2260;DHT22;333;48.800;9.530;2023-04-21T10:30:18;14.00;99.60
2260;DHT22;333;48.800;9.530;2023-04-21T10:32:47;14.60;99.60
2260;DHT22;333;48.800;9.530;2023-04-21T10:35:15;15.10;99.60
2260;DHT22;333;48.800;9.530;2023-04-21T10:37:43;15.00;99.60
2260;DHT22;333;48.800;9.530;2023-04-21T10:40:32;15.30;99.60
2260;DHT22;333;48.800;9.530;2023-04-21T10:43:01;15.30;99.60
2260;DHT22;333;48.800;9.530;2023-04-21T10:45:29;15.30;99.60
2260;DHT22;333;48.800;9.530;2023-04-21T10:47:59;15.50;99.60
2260;DHT22;333;48.800;9.530;2023-04-21T10:50:29;15.50;99.60
2260;DHT22;333;48.800;9.530;2023-04-21T10:53:05;15.80;99.60
2260;DHT22;333;48.800;9.530;2023-04-21T10:55:34;15.70;99.60
2260;DHT22;333;48.800;9.530;2023-04-21T10:58:02;15.90;99.60
2260;DHT22;333;48.800;9.530;2023-04-21T11:00:30;16.10;99.60
2260;DHT22;333;48.800;9.530;2023-04-21T11:03:00;16.10;99.60
2260;DHT22;333;48.800;9.530;2023-04-21T11:05:33;16.00;99.60
2260;DHT22;333;48.800;9.530;2023-04-21T11:08:11;16.30;99.60
2260;DHT22;333;48.800;9.530;2023-04-21T11:10:52;16.30;99.60
2260;DHT22;333;48.800;9.530;2023-04-21T11:13:21;16.10;99.60
2260;DHT22;333;48.800;9.530;2023-04-21T11:16:02;16.40;99.60
2260;DHT22;333;48.800;9.530;2023-04-21T11:18:36;16.90;99.60
2260;DHT22;333;48.800;9.530;2023-04-21T11:21:08;16.80;99.60
2260;DHT22;333;48.800;9.530;2023-04-21T11:23:38;16.80;99.60
2260;DHT22;333;48.800;9.530;2023-04-21T11:26:06;17.30;99.60
2260;DHT22;333;48.800;9.530;2023-04-21T11:28:33;17.70;99.60
2260;DHT22;333;48.800;9.530;2023-04-21T11:31:00;17.60;99.60
2260;DHT22;333;48.800;9.530;2023-04-21T11:33:28;17.10;99.60
2260;DHT22;333;48.800;9.530;2023-04-21T11:35:57;17.90;99.60
2260;DHT22;333;48.800;9.530;2023-04-21T11:38:25;17.90;99.60
2260;DHT22;333;48.800;9.530;2023-04-21T11:40:52;17.60;99.60
2260;DHT22;333;48.800;9.530;2023-04-21T11:43:20;16.70;99.60
2260;DHT22;333;48.800;9.530;2023-04-21T11:45:50;17.20;99.60
2260;DHT22;333;48.800;9.530;2023-04-21T11:48:17;17.60;99.60
2260;DHT22;333;48.800;9.530;2023-04-21T11:50:49;18.10;99.60
2260;DHT22;333;48.800;9.530;2023-04-21T11:53:18;17.70;99.60
2260;DHT22;333;48.800;9.530;2023-04-21T11:55:45;18.00;99.60
2260;DHT22;333;48.800;9.530;2023-04-21T11:58:12;17.80;99.60
2260;DHT22;333;48.800;9.530;2023-04-21T12:00:43;17.80;99.60
2260;DHT22;333;48.800;9.530;2023-04-21T12:03:12;17.80;99.60
2260;DHT22;333;48.800;9.530;2023-04-21T12:05:39;17.80;99.60
2260;DHT22;333;48.800;9.530;2023-04-21T12:08:12;17.60;99.60
2260;DHT22;333;48.800;9.530;2023-04-21T12:10:43;18.20;99.60
2260;DHT22;333;48.800;9.530;2023-04-21T12:13:11;18.50;99.60
2260;DHT22;333;48.800;9.530;2023-04-21T12:15:38;19.00;99.60
2260;DHT22;333;48.800;9.530;2023-04-21T12:18:11;17.90;99.60
2260;DHT22;333;48.800;9.530;2023-04-21T12:20:48;18.50;99.60
2260;DHT22;333;48.800;9.530;2023-04-21T12:23:15;18.50;99.60
2260;DHT22;333;48.800;9.530;2023-04-21T12:25:45;19.00;99.60
2260;DHT22;333;48.800;9.530;2023-04-21T12:28:14;18.80;99.60
2260;DHT22;333;48.800;9.530;2023-04-21T12:30:41;19.20;99.60
2260;DHT22;333;48.800;9.530;2023-04-21T12:33:09;18.80;99.60
2260;DHT22;333;48.800;9.530;2023-04-21T12:35:36;19.00;99.60
2260;DHT22;333;48.800;9.530;2023-04-21T12:38:03;18.90;99.60
2260;DHT22;333;48.800;9.530;2023-04-21T12:40:31;19.20;98.80
2260;DHT22;333;48.800;9.530;2023-04-21T12:42:59;18.80;99.60
2260;DHT22;333;48.800;9.530;2023-04-21T12:45:26;19.10;99.10
2260;DHT22;333;48.800;9.530;2023-04-21T12:47:54;19.60;99.60
2260;DHT22;333;48.800;9.530;2023-04-21T12:50:22;20.10;96.10
2260;DHT22;333;48.800;9.530;2023-04-21T12:52:49;20.50;95.80
2260;DHT22;333;48.800;9.530;2023-04-21T12:55:20;20.90;92.10
2260;DHT22;333;48.800;9.530;2023-04-21T12:57:47;20.50;92.70
2260;DHT22;333;48.800;9.530;2023-04-21T13:00:16;20.90;92.00
2260;DHT22;333;48.800;9.530;2023-04-21T13:02:43;20.80;93.40
2260;DHT22;333;48.800;9.530;2023-04-21T13:05:10;21.40;91.00
2260;DHT22;333;48.800;9.530;2023-04-21T13:07:38;21.80;90.20
2260;DHT22;333;48.800;9.530;2023-04-21T13:10:06;22.30;89.80
2260;DHT22;333;48.800;9.530;2023-04-21T13:12:33;21.40;90.30
2260;DHT22;333;48.800;9.530;2023-04-21T13:15:00;21.00;89.90
2260;DHT22;333;48.800;9.530;2023-04-21T13:17:29;20.50;91.60
2260;DHT22;333;48.800;9.530;2023-04-21T13:19:56;20.30;93.70
2260;DHT22;333;48.800;9.530;2023-04-21T13:22:23;20.80;94.10
2260;DHT22;333;48.800;9.530;2023-04-21T13:24:50;21.40;92.10
2260;DHT22;333;48.800;9.530;2023-04-21T13:27:17;21.40;90.80
2260;DHT22;333;48.800;9.530;2023-04-21T13:29:44;21.60;90.90
2260;DHT22;333;48.800;9.530;2023-04-21T13:32:12;22.00;89.70
2260;DHT22;333;48.800;9.530;2023-04-21T13:34:40;22.20;89.10
2260;DHT22;333;48.800;9.530;2023-04-21T13:37:08;22.30;89.90
2260;DHT22;333;48.800;9.530;2023-04-21T13:39:39;22.10;89.50
2260;DHT22;333;48.800;9.530;2023-04-21T13:42:06;22.70;86.30
2260;DHT22;333;48.800;9.530;2023-04-21T13:44:33;22.40;87.70
2260;DHT22;333;48.800;9.530;2023-04-21T13:47:00;22.80;87.50
2260;DHT22;333;48.800;9.530;2023-04-21T13:49:27;22.90;85.80
2260;DHT22;333;48.800;9.530;2023-04-21T13:51:56;22.80;87.00
2260;DHT22;333;48.800;9.530;2023-04-21T13:54:23;22.20;85.40
2260;DHT22;333;48.800;9.530;2023-04-21T13:56:50;22.90;86.90
2260;DHT22;333;48.800;9.530;2023-04-21T13:59:17;22.90;85.10
2260;DHT22;333;48.800;9.530;2023-04-21T14:01:45;22.70;84.90
2260;DHT22;333;48.800;9.530;2023-04-21T14:04:12;22.80;84.90
2260;DHT22;333;48.800;9.530;2023-04-21T14:06:39;22.60;83.90
2260;DHT22;333;48.800;9.530;2023-04-21T14:09:08;22.40;84.80
2260;DHT22;333;48.800;9.530;2023-04-21T14:11:35;22.00;85.30
2260;DHT22;333;48.800;9.530;2023-04-21T14:14:02;22.40;85.70
2260;DHT22;333;48.800;9.530;2023-04-21T14:16:29;22.70;85.30
2260;DHT22;333;48.800;9.530;2023-04-21T14:18:56;22.60;82.70
2260;DHT22;333;48.800;9.530;2023-04-21T14:21:23;22.40;84.30
2260;DHT22;333;48.800;9.530;2023-04-21T14:23:51;22.60;84.00
2260;DHT22;333;48.800;9.530;2023-04-21T14:26:19;23.00;83.30
2260;DHT22;333;48.800;9.530;2023-04-21T14:28:46;23.00;81.60
2260;DHT22;333;48.800;9.530;2023-04-21T14:31:13;23.30;82.00
2260;DHT22;333;48.800;9.530;2023-04-21T14:33:40;23.60;83.10
2260;DHT22;333;48.800;9.530;2023-04-21T14:36:07;23.50;81.60
2260;DHT22;333;48.800;9.530;2023-04-21T14:38:35;23.70;81.10
2260;DHT22;333;48.800;9.530;2023-04-21T14:41:02;23.70;80.50
2260;DHT22;333;48.800;9.530;2023-04-21T14:43:30;24.30;79.30
2260;DHT22;333;48.800;9.530;2023-04-21T14:45:57;24.20;80.20
2260;DHT22;333;48.800;9.530;2023-04-21T14:48:25;23.80;80.50
2260;DHT22;333;48.800;9.530;2023-04-21T14:50:52;23.90;80.80
2260;DHT22;333;48.800;9.530;2023-04-21T14:53:19;24.30;80.90
2260;DHT22;333;48.800;9.530;2023-04-21T14:55:46;24.60;78.40
2260;DHT22;333;48.800;9.530;2023-04-21T14:58:13;24.50;78.90
2260;DHT22;333;48.800;9.530;2023-04-21T15:00:42;23.80;80.00
2260;DHT22;333;48.800;9.530;2023-04-21T15:03:09;24.50;78.70
2260;DHT22;333;48.800;9.530;2023-04-21T15:05:36;24.80;76.00
2260;DHT22;333;48.800;9.530;2023-04-21T15:08:03;25.00;75.90
2260;DHT22;333;48.800;9.530;2023-04-21T15:10:30;24.70;76.50
2260;DHT22;333;48.800;9.530;2023-04-21T15:12:57;24.10;76.60
2260;DHT22;333;48.800;9.530;2023-04-21T15:15:24;23.40;78.30
2260;DHT22;333;48.800;9.530;2023-04-21T15:17:52;23.60;79.30
2260;DHT22;333;48.800;9.530;2023-04-21T15:20:19;23.70;77.50
2260;DHT22;333;48.800;9.530;2023-04-21T15:22:46;23.70;77.80
2260;DHT22;333;48.800;9.530;2023-04-21T15:25:13;23.70;78.60
2260;DHT22;333;48.800;9.530;2023-04-21T15:27:40;23.80;77.40
2260;DHT22;333;48.800;9.530;2023-04-21T15:30:08;23.00;81.70
2260;DHT22;333;48.800;9.530;2023-04-21T15:32:36;22.90;80.90
2260;DHT22;333;48.800;9.530;2023-04-21T15:35:05;23.20;81.50
2260;DHT22;333;48.800;9.530;2023-04-21T15:37:32;24.10;80.50
2260;DHT22;333;48.800;9.530;2023-04-21T15:39:59;24.20;78.20
2260;DHT22;333;48.800;9.530;2023-04-21T15:42:26;24.20;79.70
2260;DHT22;333;48.800;9.530;2023-04-21T15:44:53;23.40;79.50
2260;DHT22;333;48.800;9.530;2023-04-21T15:47:21;22.60;82.30
2260;DHT22;333;48.800;9.530;2023-04-21T15:49:48;21.90;83.50
2260;DHT22;333;48.800;9.530;2023-04-21T15:52:17;22.00;83.30
2260;DHT22;333;48.800;9.530;2023-04-21T15:54:45;23.00;82.00
2260;DHT22;333;48.800;9.530;2023-04-21T15:57:12;23.30;80.70
2260;DHT22;333;48.800;9.530;2023-04-21T15:59:39;22.60;82.30
2260;DHT22;333;48.800;9.530;2023-04-21T16:02:06;21.80;85.00
2260;DHT22;333;48.800;9.530;2023-04-21T16:04:33;21.00;86.60
2260;DHT22;333;48.800;9.530;2023-04-21T16:07:00;20.50;87.70
2260;DHT22;333;48.800;9.530;2023-04-21T16:09:29;20.30;88.90
2260;DHT22;333;48.800;9.530;2023-04-21T16:11:56;20.00;90.10
2260;DHT22;333;48.800;9.530;2023-04-21T16:14:23;19.80;90.80
2260;DHT22;333;48.800;9.530;2023-04-21T16:16:50;19.60;91.10
2260;DHT22;333;48.800;9.530;2023-04-21T16:19:17;19.50;91.80
2260;DHT22;333;48.800;9.530;2023-04-21T16:21:44;19.30;91.50
2260;DHT22;333;48.800;9.530;2023-04-21T16:24:11;19.40;91.50
2260;DHT22;333;48.800;9.530;2023-04-21T16:26:39;19.60;91.10
2260;DHT22;333;48.800;9.530;2023-04-21T16:29:06;20.40;89.70
2260;DHT22;333;48.800;9.530;2023-04-21T16:31:33;21.10;87.60